Time;durP1;ratioP1;P1;durP2;ratioP2;P2;SDS_P1;SDS_P2;PMS_P1;PMS_P2;Temp;Humidity;BMP_temperature;BMP_pressure;BME280_temperature;BME280_humidity;BME280_pressure;Samples;Min_cycle;Max_cycle;Signal;HPM_P1;HPM_P2
2022/11/01 00:01:30;;;;;;;9.95;4.95;;;;;;;19.36;54.78;100791.69;5072317;28;20059;-65
2022/11/01 00:03:57;;;;;;;11.13;5.40;;;;;;;19.36;54.49;100788.13;5071666;28;20071;-64
2022/11/01 00:06:24;;;;;;;7.40;5.35;;;;;;;19.37;54.93;100792.53;5071548;28;20510;-65
2022/11/01 00:08:51;;;;;;;11.93;5.53;;;;;;;19.36;54.50;100785.38;5071574;28;20036;-65
2022/11/01 00:11:18;;;;;;;8.02;5.50;;;;;;;19.35;54.80;100780.97;5052656;28;20036;-65
2022/11/01 00:13:46;;;;;;;10.90;5.55;;;;;;;19.33;54.93;100775.69;5051445;28;20044;-65
2022/11/01 00:16:14;;;;;;;15.57;5.88;;;;;;;19.32;54.69;100773.09;5051497;28;20107;-65
2022/11/01 00:18:40;;;;;;;14.18;5.22;;;;;;;19.30;54.89;100769.69;5051487;28;20095;-65
2022/11/01 00:21:08;;;;;;;12.65;5.70;;;;;;;19.29;55.25;100757.94;5067916;28;20044;-66
2022/11/01 00:23:35;;;;;;;11.23;5.50;;;;;;;19.30;55.13;100758.81;5071213;28;20039;-65
2022/11/01 00:26:03;;;;;;;11.35;5.35;;;;;;;19.30;55.32;100761.53;5071349;28;20498;-65
2022/11/01 00:28:29;;;;;;;13.85;5.85;;;;;;;19.32;55.25;100764.94;5071729;28;20085;-66
2022/11/01 00:30:57;;;;;;;14.82;5.68;;;;;;;19.34;55.69;100766.50;5055542;28;20087;-65
2022/11/01 00:33:24;;;;;;;11.20;5.70;;;;;;;19.34;55.61;100761.06;5051220;28;20446;-65
2022/11/01 00:35:59;;;;;;;9.93;5.93;;;;;;;19.35;55.71;100761.91;5033537;28;20045;-65
2022/11/01 00:38:26;;;;;;;12.13;5.82;;;;;;;19.35;55.70;100757.31;5051251;28;20499;-65
2022/11/01 00:40:53;;;;;;;13.35;5.43;;;;;;;19.35;55.72;100760.03;5054202;28;20099;-65
2022/11/01 00:43:20;;;;;;;11.63;5.85;;;;;;;19.33;55.93;100742.16;5070922;28;20059;-65
2022/11/01 00:45:47;;;;;;;8.73;5.93;;;;;;;19.30;55.92;100737.00;5071342;28;20449;-65
2022/11/01 00:48:13;;;;;;;9.93;5.43;;;;;;;19.31;55.87;100728.69;5071268;28;20033;-66
2022/11/01 00:50:40;;;;;;;11.13;5.65;;;;;;;19.31;55.96;100736.00;5055494;28;20056;-65
2022/11/01 00:53:09;;;;;;;7.43;5.13;;;;;;;19.30;56.08;100724.25;5050906;28;20112;-65
2022/11/01 00:55:36;;;;;;;11.50;5.50;;;;;;;19.32;56.09;100735.84;5049368;28;20103;-65
2022/11/01 00:58:03;;;;;;;8.90;5.45;;;;;;;19.31;56.55;100731.41;5050996;28;20049;-65
2022/11/01 01:00:30;;;;;;;9.85;5.45;;;;;;;19.32;56.61;100729.53;5066912;28;20471;-65
2022/11/01 01:02:56;;;;;;;15.13;5.38;;;;;;;19.33;56.31;100729.41;5070892;28;20033;-65
2022/11/01 01:05:23;;;;;;;12.68;5.82;;;;;;;19.34;56.54;100728.38;5071827;28;20552;-68
2022/11/01 01:07:50;;;;;;;11.18;5.50;;;;;;;19.36;56.64;100734.50;5075271;28;20052;-65
2022/11/01 01:10:16;;;;;;;11.10;5.60;;;;;;;19.39;56.42;100737.91;5060659;28;20087;-65
2022/11/01 01:12:43;;;;;;;11.00;5.53;;;;;;;19.42;56.64;100734.84;5055087;28;20404;-65
2022/11/01 01:15:13;;;;;;;9.77;5.45;;;;;;;19.41;56.63;100733.16;5055123;28;20045;-64
2022/11/01 01:17:39;;;;;;;8.43;5.45;;;;;;;19.40;56.55;100729.56;5054918;28;20053;-64
2022/11/01 01:20:07;;;;;;;8.95;5.57;;;;;;;19.40;56.62;100715.94;5049410;28;20541;-65
2022/11/01 01:22:33;;;;;;;8.80;5.00;;;;;;;19.41;56.52;100722.25;5074909;28;20052;-65
2022/11/01 01:25:04;;;;;;;9.30;5.18;;;;;;;19.41;56.85;100717.66;5075985;28;20098;-65
2022/11/01 01:27:31;;;;;;;9.70;4.70;;;;;;;19.43;56.87;100715.63;5074861;28;20044;-65
2022/11/01 01:29:58;;;;;;;10.88;5.13;;;;;;;19.44;56.64;100722.75;5073862;28;20056;-65
2022/11/01 01:32:24;;;;;;;10.55;5.15;;;;;;;19.47;56.77;100707.94;5075371;28;20044;-65
2022/11/01 01:34:51;;;;;;;10.05;5.10;;;;;;;19.49;57.23;100708.63;5074427;28;20044;-65
2022/11/01 01:37:19;;;;;;;10.25;4.85;;;;;;;19.51;57.29;100710.16;5074772;28;20449;-64
2022/11/01 01:39:45;;;;;;;12.55;4.53;;;;;;;19.55;56.99;100702.53;5073214;28;20094;-65
2022/11/01 01:42:12;;;;;;;9.48;5.00;;;;;;;19.56;57.00;100702.38;5061198;28;20032;-65
2022/11/01 01:44:54;;;;;;;8.73;4.80;;;;;;;19.58;57.15;100699.47;5052822;28;20049;-65
2022/11/01 01:47:33;;;;;;;9.18;4.22;;;;;;;19.62;57.20;100709.00;5074136;28;20064;-65
2022/11/01 01:50:11;;;;;;;7.72;4.47;;;;;;;19.65;57.56;100704.06;5074026;28;20040;-64
2022/11/01 01:53:01;;;;;;;9.52;4.15;;;;;;;19.66;57.56;100707.63;5073673;28;20081;-64
2022/11/01 01:55:36;;;;;;;7.78;4.25;;;;;;;19.71;57.31;100707.13;4972826;28;20458;-64
2022/11/01 01:58:03;;;;;;;7.20;3.75;;;;;;;19.72;57.46;100715.13;5068111;28;20053;-65
2022/11/01 02:00:29;;;;;;;9.75;4.38;;;;;;;19.73;57.50;100711.38;5059252;28;20099;-65
2022/11/01 02:02:56;;;;;;;9.40;4.22;;;;;;;19.75;57.73;100712.06;5053914;28;20045;-65
2022/11/01 02:05:50;;;;;;;8.02;4.10;;;;;;;19.78;57.79;100708.13;5053932;28;20526;-64
2022/11/01 02:08:26;;;;;;;9.82;4.38;;;;;;;19.80;57.65;100698.78;5054193;28;20099;-65
2022/11/01 02:10:59;;;;;;;7.28;4.95;;;;;;;19.81;57.61;100716.81;5068330;28;20128;-65
2022/11/01 02:13:27;;;;;;;9.23;3.95;;;;;;;19.83;57.66;100706.59;5053841;28;20041;-65
2022/11/01 02:16:21;;;;;;;7.53;4.43;;;;;;;19.84;57.59;100710.19;5053812;28;20049;-65
2022/11/01 02:19:02;;;;;;;6.95;4.63;;;;;;;19.88;57.71;100697.91;5053942;28;20037;-66
2022/11/01 02:21:45;;;;;;;8.05;4.68;;;;;;;19.92;57.62;100715.63;5053727;28;20053;-65
2022/11/01 02:24:31;;;;;;;8.45;4.40;;;;;;;19.94;58.05;100719.03;5053871;28;20045;-65
2022/11/01 02:27:07;;;;;;;9.70;4.25;;;;;;;19.98;57.84;100717.66;5053944;28;20095;-65
2022/11/01 02:29:43;;;;;;;11.02;4.38;;;;;;;20.02;58.08;100715.44;5058247;28;20033;-65
2022/11/01 02:32:20;;;;;;;10.32;4.25;;;;;;;20.04;58.13;100714.22;5073678;28;20048;-64
2022/11/01 02:35:14;;;;;;;7.38;4.47;;;;;;;20.09;57.89;100727.38;5073640;28;20484;-66
2022/11/01 02:37:47;;;;;;;10.18;3.80;;;;;;;20.13;58.29;100715.94;5073425;28;20140;-65
2022/11/01 02:40:23;;;;;;;5.50;3.88;;;;;;;20.17;58.26;100722.75;5062566;28;20041;-65
2022/11/01 02:42:56;;;;;;;7.72;3.78;;;;;;;20.21;57.92;100715.94;5055119;28;20475;-65
2022/11/01 02:45:33;;;;;;;10.25;4.18;;;;;;;20.25;57.97;100697.34;5053282;28;20052;-65
2022/11/01 02:48:01;;;;;;;6.15;4.30;;;;;;;20.27;58.06;100714.38;5053447;28;20461;-65
2022/11/01 02:50:35;;;;;;;10.98;4.25;;;;;;;20.28;57.97;100700.56;5065298;28;20098;-65
2022/11/01 02:53:03;;;;;;;7.80;3.85;;;;;;;20.29;57.95;100699.53;5073297;28;20040;-65
2022/11/01 02:55:34;;;;;;;10.18;4.18;;;;;;;20.30;57.80;100706.69;5073812;28;20044;-66
2022/11/01 02:58:12;;;;;;;7.97;3.85;;;;;;;20.33;57.95;100708.22;5073215;28;20040;-65
2022/11/01 03:00:38;;;;;;;9.15;3.67;;;;;;;20.33;57.96;100704.63;5056726;28;20094;-65
2022/11/01 03:03:29;;;;;;;8.90;4.40;;;;;;;20.31;57.96;100704.81;5052837;28;20041;-65
2022/11/01 03:06:06;;;;;;;8.68;3.90;;;;;;;20.31;57.97;100713.84;5053223;28;20107;-65
2022/11/01 03:08:39;;;;;;;8.77;3.95;;;;;;;20.33;57.73;100715.56;5052778;28;20049;-65
2022/11/01 03:11:12;;;;;;;6.57;3.95;;;;;;;20.35;57.84;100711.63;5071785;28;20036;-65
2022/11/01 03:13:55;;;;;;;8.13;3.92;;;;;;;20.35;57.79;100725.25;5072607;28;20047;-65
2022/11/01 03:16:39;;;;;;;11.18;3.83;;;;;;;20.38;57.80;100715.88;5072854;28;20058;-65
2022/11/01 03:19:06;;;;;;;7.18;3.85;;;;;;;20.38;57.94;100708.53;5070223;28;20094;-65
2022/11/01 03:21:39;;;;;;;8.20;3.42;;;;;;;20.38;57.93;100724.06;5072676;28;20082;-65
2022/11/01 03:24:26;;;;;;;7.82;3.95;;;;;;;20.37;58.01;100728.66;5072707;28;20059;-65
2022/11/01 03:27:01;;;;;;;7.43;3.88;;;;;;;20.40;57.81;100727.50;5072286;28;20094;-66
2022/11/01 03:29:30;;;;;;;7.78;3.47;;;;;;;20.41;57.75;100740.97;5070808;28;20033;-66
2022/11/01 03:31:59;;;;;;;9.02;3.67;;;;;;;20.42;57.98;100737.19;5071959;28;20044;-66
2022/11/01 03:34:30;;;;;;;7.53;4.20;;;;;;;20.45;57.89;100727.81;5072422;28;20041;-66
2022/11/01 03:37:01;;;;;;;5.68;3.67;;;;;;;20.45;57.83;100736.84;5053933;28;20078;-66
2022/11/01 03:39:33;;;;;;;5.75;3.35;;;;;;;20.46;57.69;100730.38;5063895;28;20049;-66
2022/11/01 03:42:14;;;;;;;5.43;3.28;;;;;;;20.46;57.89;100735.81;5052026;28;20049;-65
2022/11/01 03:44:46;;;;;;;5.80;3.67;;;;;;;20.48;57.43;100733.78;5052476;28;20037;-65
2022/11/01 03:47:13;;;;;;;6.78;4.00;;;;;;;20.50;57.70;100733.59;5052126;28;20134;-65
2022/11/01 03:49:39;;;;;;;7.55;3.20;;;;;;;20.49;57.81;100751.84;5059510;28;20078;-65
2022/11/01 03:52:06;;;;;;;4.40;3.50;;;;;;;20.50;57.90;100753.53;5071749;28;20105;-64
2022/11/01 03:54:35;;;;;;;6.05;3.58;;;;;;;20.49;57.65;100760.03;5072227;28;20448;-66
2022/11/01 03:57:01;;;;;;;7.05;3.65;;;;;;;20.48;57.93;100761.06;5071899;28;20394;-66
2022/11/01 03:59:28;;;;;;;7.75;3.35;;;;;;;20.45;57.54;100772.31;5066125;28;20423;-65
2022/11/01 04:01:54;;;;;;;6.40;2.90;;;;;;;20.43;57.27;100773.50;5051875;28;20037;-66
2022/11/01 04:04:22;;;;;;;7.55;2.88;;;;;;;20.41;57.27;100779.16;5052164;28;20112;-65
2022/11/01 04:06:50;;;;;;;4.25;2.22;;;;;;;20.41;57.12;100781.03;5052454;28;20140;-66
2022/11/01 04:09:16;;;;;;;4.45;1.77;;;;;;;20.40;56.46;100798.41;5055504;28;20044;-65
2022/11/01 04:11:43;;;;;;;13.05;2.00;;;;;;;20.40;56.04;100812.06;5071241;28;20043;-65
2022/11/01 04:22:25;;;;;;;3.67;1.10;;;;;;;20.21;54.40;100838.63;5051488;28;20287;-65
2022/11/01 04:24:56;;;;;;;3.50;1.23;;;;;;;20.15;53.90;100854.84;5051546;28;20041;-65
2022/11/01 04:27:22;;;;;;;4.90;1.13;;;;;;;20.08;53.85;100859.25;5051440;28;20045;-65
2022/11/01 04:29:48;;;;;;;4.25;1.13;;;;;;;20.02;53.28;100859.91;5058326;28;20399;-66
2022/11/01 04:32:15;;;;;;;3.22;0.63;;;;;;;19.94;53.31;100867.06;5071083;28;20044;-66
2022/11/01 04:34:45;;;;;;;3.60;1.17;;;;;;;19.88;52.77;100862.28;5053695;28;20177;-66
2022/11/01 04:37:11;;;;;;;2.15;0.63;;;;;;;19.82;52.74;100865.69;5071166;28;20459;-66
2022/11/01 04:39:38;;;;;;;3.15;0.93;;;;;;;19.77;52.54;100883.56;5064933;28;20037;-66
2022/11/01 04:42:04;;;;;;;2.53;0.50;;;;;;;19.72;52.01;100883.22;5051585;28;20037;-66
2022/11/01 04:44:35;;;;;;;2.50;0.70;;;;;;;19.64;51.80;100893.06;5051284;28;20094;-66
2022/11/01 04:47:01;;;;;;;4.20;0.80;;;;;;;19.59;51.86;100887.28;5051285;28;20075;-65
2022/11/01 04:49:28;;;;;;;1.02;0.60;;;;;;;19.53;51.97;100892.53;5052473;28;20087;-65
2022/11/01 04:51:54;;;;;;;2.85;0.77;;;;;;;19.47;51.64;100885.84;5051097;28;20374;-65
2022/11/01 04:54:22;;;;;;;3.58;0.82;;;;;;;19.42;51.31;100899.09;5051351;28;20037;-65
2022/11/01 04:56:49;;;;;;;3.00;0.65;;;;;;;19.36;51.62;100916.09;5051866;28;20053;-65
2022/11/01 04:59:15;;;;;;;1.27;0.57;;;;;;;19.31;51.42;100924.75;5052909;28;20049;-65
2022/11/01 05:01:43;;;;;;;3.17;1.05;;;;;;;19.25;51.17;100928.13;5070945;28;20048;-65
2022/11/01 05:04:14;;;;;;;1.70;0.60;;;;;;;19.18;50.92;100935.22;5053234;28;20426;-66
2022/11/01 05:06:40;;;;;;;2.70;0.65;;;;;;;19.14;51.20;100933.00;5070916;28;20040;-65
2022/11/01 05:09:07;;;;;;;1.20;0.60;;;;;;;19.08;50.55;100942.66;5070274;28;20098;-65
2022/11/01 05:11:33;;;;;;;3.72;0.60;;;;;;;19.03;50.72;100954.03;5070621;28;20111;-65
2022/11/01 05:14:00;;;;;;;2.22;0.80;;;;;;;18.97;50.40;100959.28;5070942;28;20033;-65
2022/11/01 05:16:26;;;;;;;3.35;0.70;;;;;;;18.93;50.42;100972.34;5051557;28;20384;-65
2022/11/01 05:18:53;;;;;;;4.00;0.82;;;;;;;18.89;50.46;100970.09;5069317;28;20106;-65
2022/11/01 05:21:19;;;;;;;4.57;0.73;;;;;;;18.84;50.23;100984.19;5050763;28;20064;-65
2022/11/01 05:23:47;;;;;;;1.98;0.60;;;;;;;18.80;50.30;100990.97;5050900;28;20045;-64
2022/11/01 05:26:14;;;;;;;2.35;0.80;;;;;;;18.76;50.72;100992.28;5050778;28;20060;-64
2022/11/01 05:28:40;;;;;;;3.75;0.50;;;;;;;18.72;50.65;100994.47;5051995;28;20049;-65
2022/11/01 05:31:07;;;;;;;2.13;0.57;;;;;;;18.70;50.36;101017.41;5070742;28;20482;-64
2022/11/01 05:33:33;;;;;;;3.55;0.85;;;;;;;18.65;50.61;101008.88;5070427;28;20045;-65
2022/11/01 05:36:01;;;;;;;2.92;0.90;;;;;;;18.61;50.55;101012.88;5070757;28;20048;-65
2022/11/01 05:38:27;;;;;;;1.52;0.60;;;;;;;18.57;50.36;101006.88;5070374;28;20114;-64
2022/11/01 05:40:54;;;;;;;5.78;0.80;;;;;;;18.53;50.34;101018.22;5050741;28;20091;-65
2022/11/01 05:43:20;;;;;;;2.40;0.65;;;;;;;18.49;50.70;101017.69;5050329;28;20118;-65
2022/11/01 05:45:48;;;;;;;1.38;0.70;;;;;;;18.46;50.67;101011.69;5050795;28;20041;-65
2022/11/01 05:48:14;;;;;;;3.58;0.80;;;;;;;18.42;50.68;101017.44;5050706;28;20107;-66
2022/11/01 05:50:42;;;;;;;3.28;1.15;;;;;;;18.37;50.73;101022.50;5070364;28;20555;-65
2022/11/01 05:53:09;;;;;;;2.25;0.68;;;;;;;18.34;50.82;101030.09;5074145;28;20090;-65
2022/11/01 05:55:38;;;;;;;3.97;0.70;;;;;;;18.31;50.68;101031.28;5074476;28;20064;-66
2022/11/01 05:58:05;;;;;;;3.47;0.80;;;;;;;18.28;50.90;101028.88;5074328;28;20051;-64
2022/11/01 06:00:32;;;;;;;4.20;0.90;;;;;;;18.24;50.95;101026.59;5054777;28;20048;-65
2022/11/01 06:02:59;;;;;;;2.38;0.70;;;;;;;18.21;50.62;101027.78;5053927;28;20433;-65
2022/11/01 06:05:30;;;;;;;3.55;1.05;;;;;;;18.17;50.72;101039.09;5054363;28;20043;-65
2022/11/01 06:08:00;;;;;;;4.18;0.90;;;;;;;18.13;50.80;101054.88;5053807;28;20045;-64
2022/11/01 06:10:27;;;;;;;2.60;0.55;;;;;;;18.09;50.83;101048.03;5071724;28;20040;-65
2022/11/01 06:12:54;;;;;;;4.32;0.90;;;;;;;18.04;51.01;101042.19;5073807;28;20552;-64
2022/11/01 06:15:25;;;;;;;2.22;1.00;;;;;;;17.99;50.93;101053.53;5074003;28;20098;-65
2022/11/01 06:17:56;;;;;;;3.65;1.02;;;;;;;17.97;50.87;101060.13;5075004;28;20041;-65
2022/11/01 06:20:24;;;;;;;2.92;0.73;;;;;;;17.93;50.96;101077.72;5073220;28;20057;-65
2022/11/01 06:22:50;;;;;;;3.75;1.10;;;;;;;17.90;50.52;101076.16;5073540;28;20118;-65
2022/11/01 06:25:21;;;;;;;2.55;0.75;;;;;;;17.86;50.58;101079.34;5074142;28;20036;-65
2022/11/01 06:27:48;;;;;;;2.80;1.15;;;;;;;17.84;50.56;101081.34;5073963;28;20483;-65
2022/11/01 06:30:14;;;;;;;4.03;0.80;;;;;;;17.81;50.64;101087.06;5072115;28;20040;-65
2022/11/01 06:32:41;;;;;;;3.05;0.98;;;;;;;17.77;50.69;101095.50;5072827;28;20048;-65
2022/11/01 06:35:10;;;;;;;4.13;1.25;;;;;;;17.74;50.59;101103.09;5073321;28;20052;-65
2022/11/01 06:37:40;;;;;;;5.63;1.10;;;;;;;17.68;50.80;101099.13;5073878;28;20071;-65
2022/11/01 06:40:07;;;;;;;7.03;1.52;;;;;;;17.66;50.46;101111.97;5071710;28;20082;-65
2022/11/01 06:42:33;;;;;;;3.38;1.08;;;;;;;17.66;50.60;101101.13;5072879;28;20524;-65
2022/11/01 06:45:02;;;;;;;7.20;1.23;;;;;;;17.63;50.41;101106.81;5073187;28;20303;-65
2022/11/01 06:47:29;;;;;;;5.72;0.80;;;;;;;17.61;50.41;101106.09;5073250;28;20522;-66
2022/11/01 06:49:55;;;;;;;1.80;0.60;;;;;;;17.60;50.68;101111.69;5056241;28;20037;-66
2022/11/01 06:52:22;;;;;;;3.80;0.75;;;;;;;17.57;50.73;101112.84;5052851;28;20094;-65
2022/11/01 06:54:52;;;;;;;5.20;1.13;;;;;;;17.52;50.17;101117.84;5053118;28;20041;-65
2022/11/01 06:57:19;;;;;;;4.20;0.80;;;;;;;17.49;50.79;101123.59;5052690;28;20118;-65
2022/11/01 06:59:45;;;;;;;4.50;1.20;;;;;;;17.47;50.73;101128.31;5053964;28;20041;-65
2022/11/01 07:02:12;;;;;;;5.32;0.90;;;;;;;17.46;50.63;101126.59;5052541;28;20136;-64
2022/11/01 07:04:43;;;;;;;4.03;1.27;;;;;;;17.44;50.80;101125.88;5052121;28;20075;-65
2022/11/01 07:07:09;;;;;;;3.58;0.85;;;;;;;17.43;50.72;101145.91;5052907;28;20491;-65
2022/11/01 07:09:36;;;;;;;3.90;1.20;;;;;;;17.40;50.62;101151.63;5053760;28;20049;-66
2022/11/01 07:12:03;;;;;;;7.68;1.00;;;;;;;17.36;50.79;101142.91;5052821;28;20533;-65
2022/11/01 07:14:32;;;;;;;7.85;1.35;;;;;;;17.34;50.95;101149.47;5052822;28;20033;-65
2022/11/01 07:16:58;;;;;;;2.60;0.88;;;;;;;17.32;51.12;101155.06;5061940;28;20040;-65
2022/11/01 07:19:25;;;;;;;4.00;1.45;;;;;;;17.33;51.19;101164.91;5072476;28;20044;-65
2022/11/01 07:21:51;;;;;;;8.20;1.17;;;;;;;17.34;50.82;101171.19;5072390;28;20145;-65
2022/11/01 07:24:19;;;;;;;3.10;1.10;;;;;;;17.35;50.88;101176.47;5072341;28;20045;-64
2022/11/01 07:26:47;;;;;;;4.85;1.25;;;;;;;17.36;51.11;101188.19;5071004;28;20129;-64
2022/11/01 07:29:13;;;;;;;3.55;1.00;;;;;;;17.38;51.30;101188.91;5071519;28;20488;-66
2022/11/01 07:31:40;;;;;;;5.88;1.23;;;;;;;17.40;51.34;101186.91;5053938;28;20102;-66
2022/11/01 07:36:37;;;;;;;7.65;1.85;;;;;;;17.40;51.16;101195.91;5064223;28;20571;-66
2022/11/01 07:39:03;;;;;;;8.07;1.15;;;;;;;17.43;50.95;101202.91;5072127;28;20146;-66
2022/11/01 07:41:30;;;;;;;5.85;1.23;;;;;;;17.46;51.43;101194.47;5072063;28;20345;-66
2022/11/01 07:43:56;;;;;;;5.55;1.20;;;;;;;17.50;51.22;101204.03;5072351;28;20040;-66
2022/11/01 07:46:23;;;;;;;6.05;1.60;;;;;;;17.52;51.17;101210.19;5066564;28;20071;-66
2022/11/01 07:48:50;;;;;;;6.93;1.40;;;;;;;17.54;51.18;101227.19;5052232;28;20106;-65
2022/11/01 07:51:17;;;;;;;8.35;1.63;;;;;;;17.58;51.25;101222.31;5052055;28;20100;-66
2022/11/01 07:53:43;;;;;;;3.92;1.25;;;;;;;17.59;50.95;101222.19;5051930;28;20645;-65
2022/11/01 07:56:10;;;;;;;8.10;1.40;;;;;;;17.62;51.18;101224.59;5054152;28;20118;-66
2022/11/01 07:58:36;;;;;;;7.35;1.30;;;;;;;17.65;51.05;101232.47;5051911;28;20047;-65
2022/11/01 08:01:03;;;;;;;9.07;1.67;;;;;;;17.68;51.05;101223.19;5051867;28;20033;-66
2022/11/01 08:03:29;;;;;;;4.00;1.13;;;;;;;17.69;51.03;101233.06;5051590;28;20047;-66
2022/11/01 08:05:56;;;;;;;4.40;1.52;;;;;;;17.72;51.16;101236.34;5052968;28;20033;-65
2022/11/01 08:08:23;;;;;;;8.32;1.60;;;;;;;17.75;50.81;101238.78;5057060;28;20041;-65
2022/11/01 08:10:49;;;;;;;5.68;1.40;;;;;;;17.78;50.63;101243.06;5051915;28;20045;-65
2022/11/01 08:13:23;;;;;;;5.50;1.50;;;;;;;17.78;50.77;101252.06;5071812;28;20102;-64
2022/11/01 08:15:53;;;;;;;6.90;1.80;;;;;;;17.79;50.95;101255.63;5070205;28;20040;-65
2022/11/01 08:18:23;;;;;;;6.50;1.45;;;;;;;17.80;50.68;101257.34;5054199;28;20048;-65
2022/11/01 08:20:50;;;;;;;4.13;1.52;;;;;;;17.79;51.01;101261.94;5071659;28;20041;-64
2022/11/01 08:23:16;;;;;;;8.38;1.83;;;;;;;17.81;50.89;101263.66;5070539;28;20181;-64
2022/11/01 08:25:44;;;;;;;5.25;1.67;;;;;;;17.82;50.48;101270.78;5070131;28;20060;-65
2022/11/01 08:28:14;;;;;;;8.60;1.85;;;;;;;17.82;50.56;101265.34;5069822;28;20337;-65
2022/11/01 08:30:42;;;;;;;6.55;1.73;;;;;;;17.85;50.46;101259.66;5069437;28;20040;-66
2022/11/01 08:33:09;;;;;;;7.85;1.70;;;;;;;17.87;50.71;101276.69;5069111;28;20102;-66
2022/11/01 08:35:37;;;;;;;10.30;1.83;;;;;;;17.92;50.74;101272.53;5069731;28;20382;-66
2022/11/01 08:38:04;;;;;;;8.07;1.60;;;;;;;17.97;50.34;101267.50;5069432;28;20094;-66
2022/11/01 08:40:32;;;;;;;6.00;1.40;;;;;;;18.04;50.26;101276.78;5069547;28;20052;-66
2022/11/01 08:42:59;;;;;;;9.95;2.47;;;;;;;18.12;50.15;101272.47;5067660;28;20576;-66
2022/11/01 08:45:27;;;;;;;9.32;2.03;;;;;;;18.18;50.27;101283.59;5070674;28;20111;-67
2022/11/01 08:48:02;;;;;;;13.18;2.22;;;;;;;18.30;50.26;101287.88;5061021;28;20114;-66
2022/11/01 08:50:29;;;;;;;13.05;2.13;;;;;;;18.44;50.22;101294.69;5051387;28;20073;-67
2022/11/01 08:52:55;;;;;;;9.20;2.33;;;;;;;18.57;50.02;101278.03;5050376;28;20107;-67
2022/11/01 08:55:24;;;;;;;9.25;2.15;;;;;;;18.67;49.68;101292.50;5050937;28;20041;-67
2022/11/01 08:57:50;;;;;;;8.43;2.17;;;;;;;18.76;49.21;101288.88;5061986;28;20048;-68
2022/11/01 09:00:17;;;;;;;10.80;2.17;;;;;;;18.83;49.04;101291.84;5070758;28;20051;-68
2022/11/01 09:02:44;;;;;;;7.75;2.22;;;;;;;18.91;49.02;101292.81;5070588;28;20037;-69
2022/11/01 09:05:12;;;;;;;7.38;2.10;;;;;;;18.99;48.88;101290.16;5071069;28;20098;-69
2022/11/01 09:07:38;;;;;;;10.48;2.17;;;;;;;19.06;48.81;101298.59;5042791;28;20049;-69
2022/11/01 09:10:06;;;;;;;11.43;2.22;;;;;;;19.13;48.71;101305.13;5050689;28;20495;-69
2022/11/01 09:12:33;;;;;;;8.00;1.88;;;;;;;19.22;48.08;101315.09;5064587;28;20086;-69
2022/11/01 09:15:00;;;;;;;7.28;1.48;;;;;;;19.29;48.46;101297.13;5069140;28;20060;-69
2022/11/01 09:17:27;;;;;;;10.05;2.00;;;;;;;19.39;48.40;101310.72;5068582;28;20041;-69
2022/11/01 09:19:54;;;;;;;6.47;1.70;;;;;;;19.48;48.14;101311.63;5070717;28;20044;-69
2022/11/01 09:22:21;;;;;;;9.07;2.00;;;;;;;19.55;47.91;101307.31;5070430;28;20100;-69
2022/11/01 09:24:54;;;;;;;9.52;2.35;;;;;;;19.63;47.73;101308.25;5070675;28;20472;-70
2022/11/01 09:27:20;;;;;;;8.85;2.10;;;;;;;19.74;47.72;101311.75;5070691;28;20106;-69
2022/11/01 09:29:47;;;;;;;5.10;1.67;;;;;;;19.79;47.64;101315.72;5074699;28;20090;-69
2022/11/01 09:32:20;;;;;;;11.80;2.08;;;;;;;19.84;47.31;101324.28;5074076;28;20045;-69
2022/11/01 09:34:50;;;;;;;7.70;2.22;;;;;;;19.89;47.01;101321.91;5074515;28;20052;-70
2022/11/01 09:37:17;;;;;;;8.38;2.47;;;;;;;19.96;47.15;101323.00;5072354;28;20062;-69
2022/11/01 09:39:43;;;;;;;10.88;2.20;;;;;;;20.06;47.33;101319.31;5074197;28;20541;-69
2022/11/01 09:42:25;;;;;;;9.85;2.33;;;;;;;20.13;47.19;101314.97;5063581;28;20091;-69
2022/11/01 09:44:55;;;;;;;9.57;2.35;;;;;;;20.20;46.82;101327.81;5054341;28;20119;-70
2022/11/01 09:47:27;;;;;;;10.68;2.20;;;;;;;20.24;46.69;101334.66;5042604;28;20098;-70
2022/11/01 09:50:01;;;;;;;13.82;2.35;;;;;;;20.28;46.37;101336.06;5061562;28;20037;-69
2022/11/01 09:52:28;;;;;;;11.93;1.90;;;;;;;20.28;46.26;101333.31;5053800;28;20053;-69
2022/11/01 09:54:54;;;;;;;8.27;1.98;;;;;;;20.31;46.24;101332.16;5054423;28;20093;-69
2022/11/01 09:57:34;;;;;;;8.98;2.08;;;;;;;20.34;46.17;101328.25;5054947;28;20041;-69
2022/11/01 10:00:03;;;;;;;9.25;2.30;;;;;;;20.39;46.23;101351.31;5053983;28;20048;-69
2022/11/01 10:02:44;;;;;;;8.32;2.05;;;;;;;20.45;46.17;101368.94;5053814;28;20056;-69
2022/11/01 10:05:20;;;;;;;9.45;2.42;;;;;;;20.51;46.25;101369.13;5035884;28;20057;-68
2022/11/01 10:08:09;;;;;;;9.15;2.38;;;;;;;20.55;45.74;101373.25;5054762;28;20588;-67
2022/11/01 10:10:37;;;;;;;12.20;2.33;;;;;;;20.65;46.09;101377.75;5053746;28;20045;-67
2022/11/01 10:13:17;;;;;;;9.60;2.17;;;;;;;20.68;45.52;101378.28;5072090;28;20098;-68
2022/11/01 10:16:13;;;;;;;9.60;1.83;;;;;;;20.73;45.91;101375.06;5073653;28;20090;-68
2022/11/01 10:18:55;;;;;;;10.80;2.63;;;;;;;20.80;45.92;101379.72;5062726;28;20086;-69
2022/11/01 10:21:24;;;;;;;9.93;1.83;;;;;;;20.87;45.69;101378.06;5073497;28;20106;-66
2022/11/01 10:23:58;;;;;;;8.48;2.33;;;;;;;20.94;45.67;101379.13;5073358;28;20037;-66
2022/11/01 10:26:28;;;;;;;10.75;2.28;;;;;;;20.97;45.60;101382.56;5073653;28;20052;-66
2022/11/01 10:29:16;;;;;;;7.82;2.42;;;;;;;21.01;45.30;101393.00;5071591;28;20082;-65
2022/11/01 10:31:47;;;;;;;8.13;1.88;;;;;;;21.02;45.19;101393.84;5055124;28;20044;-67
2022/11/01 10:34:24;;;;;;;10.98;2.75;;;;;;;21.03;45.05;101398.28;5073420;28;20040;-66
2022/11/01 10:36:57;;;;;;;10.00;2.25;;;;;;;21.10;45.26;101394.72;5073299;28;20452;-66
2022/11/01 10:39:44;;;;;;;9.10;2.58;;;;;;;21.18;45.01;101394.78;5073344;28;20048;-66
2022/11/01 10:42:22;;;;;;;7.68;2.05;;;;;;;21.27;44.95;101405.75;5071063;28;20044;-66
2022/11/01 10:44:54;;;;;;;7.85;2.50;;;;;;;21.32;45.19;101396.03;5073097;28;20025;-66
2022/11/01 10:47:23;;;;;;;9.80;2.10;;;;;;;21.42;45.03;101399.50;5073008;28;20049;-66
2022/11/01 10:50:13;;;;;;;7.78;1.88;;;;;;;21.55;45.00;101396.28;5073444;28;20048;-65
2022/11/01 10:52:49;;;;;;;9.82;2.45;;;;;;;21.58;44.71;101398.72;5058606;28;20084;-65
2022/11/01 10:55:48;;;;;;;10.30;3.00;;;;;;;21.63;44.49;101400.94;5053224;28;20091;-66
2022/11/01 10:58:28;;;;;;;7.50;2.05;;;;;;;21.70;44.62;101397.38;5052932;28;20098;-67
2022/11/01 11:00:54;;;;;;;8.68;2.17;;;;;;;21.79;44.50;101395.50;5031439;28;20052;-66
2022/11/01 11:03:29;;;;;;;8.52;2.20;;;;;;;21.84;44.40;101398.59;5047129;28;20033;-66
2022/11/01 11:06:00;;;;;;;6.95;1.92;;;;;;;21.91;44.42;101396.88;5052659;28;20057;-66
2022/11/01 11:08:27;;;;;;;9.20;2.65;;;;;;;21.97;44.46;101404.41;5053189;28;20102;-67
2022/11/01 11:11:01;;;;;;;8.85;2.28;;;;;;;22.00;44.09;101390.41;5052688;28;20037;-66
2022/11/01 11:13:28;;;;;;;8.10;2.05;;;;;;;22.04;43.93;101399.16;5052955;28;20045;-66
2022/11/01 11:16:03;;;;;;;10.70;1.83;;;;;;;22.05;43.81;101395.38;5052435;28;20041;-67
2022/11/01 11:18:29;;;;;;;9.03;2.00;;;;;;;22.08;43.72;101392.31;5052590;28;20029;-66
2022/11/01 11:21:01;;;;;;;7.95;2.53;;;;;;;22.06;43.35;101387.00;5050872;28;20449;-67
2022/11/01 11:23:31;;;;;;;9.02;2.00;;;;;;;22.08;43.67;101392.31;5052311;28;20045;-67
2022/11/01 11:26:03;;;;;;;8.88;2.20;;;;;;;22.13;43.62;101395.41;5052524;28;20044;-67
2022/11/01 11:28:33;;;;;;;5.50;1.92;;;;;;;22.22;43.42;101401.72;5052123;28;20057;-67
2022/11/01 11:31:33;;;;;;;5.72;1.58;;;;;;;22.31;43.37;101395.25;5050869;28;20493;-67
2022/11/01 11:34:31;;;;;;;6.70;1.77;;;;;;;22.41;43.36;101390.44;5052315;28;20428;-67
2022/11/01 11:37:02;;;;;;;6.72;2.20;;;;;;;22.49;43.46;101390.44;5051625;28;20052;-67
2022/11/01 11:39:35;;;;;;;7.80;2.13;;;;;;;22.53;43.14;101389.06;5052345;28;20107;-67
2022/11/01 11:42:17;;;;;;;9.07;2.10;;;;;;;22.56;42.94;101388.72;5050179;28;20041;-67
2022/11/01 11:44:49;;;;;;;6.20;1.52;;;;;;;22.57;42.99;101395.03;5052113;28;20041;-68
2022/11/01 11:47:23;;;;;;;7.03;1.70;;;;;;;22.61;42.86;101390.94;5052069;28;20056;-67
2022/11/01 11:49:52;;;;;;;10.32;2.30;;;;;;;22.63;42.64;101386.97;5047842;28;20045;-68